CST,Max TemperatureF,Mean TemperatureF,Min TemperatureF,Max Dew PointF,MeanDew PointF,Min DewpointF,Max Humidity, Mean Humidity, Min Humidity, Max Sea Level PressureIn, Mean Sea Level PressureIn, Min Sea Level PressureIn, Max VisibilityMiles, Mean VisibilityMiles, Min VisibilityMiles, Max Wind SpeedMPH, Mean Wind SpeedMPH, Max Gust SpeedMPH,PrecipitationIn, CloudCover, Events, WindDirDegrees
2012-12-1,58,45,32,54,46,29,93,87,80,30.05,29.90,29.83,9,5,0,15,8,17,T,6,Fog,172
2012-12-2,54,51,47,52,50,48,100,95,89,30.02,29.94,29.85,5,2,0,14,6,17,0.00,8,Fog-Rain,208
2012-12-3,71,58,45,58,50,36,100,80,59,29.99,29.81,29.69,10,7,0,25,15,32,0.00,4,Fog-Rain,201
2012-12-4,62,47,31,34,27,23,78,50,21,30.34,30.20,30.01,10,10,10,18,9,22,0.00,0,Rain,311
2012-12-5,46,34,21,34,26,18,84,67,49,30.40,30.27,30.06,10,10,10,20,10,24,0.00,0,,122
2012-12-6,52,47,41,40,36,34,89,73,56,30.05,29.96,29.90,10,10,7,20,10,24,0.03,5,Rain,214
2012-12-7,42,39,36,38,35,32,92,83,73,29.97,29.93,29.88,10,7,2,13,7,15,0.04,8,Rain,23
2012-12-8,41,35,29,34,31,28,100,88,76,30.05,30.00,29.94,10,5,0,12,6,16,T,6,Fog-Rain-Snow,67
2012-12-9,40,31,22,38,32,15,100,87,74,29.96,29.88,29.81,10,6,1,24,11,31,0.04,8,Rain-Snow,60
2012-12-10,30,23,15,17,14,11,88,73,58,30.02,29.98,29.91,10,10,10,22,11,28,0.00,4,,286
2012-12-11,40,27,13,20,16,9,80,62,44,30.12,30.04,29.97,10,10,9,17,9,20,0.00,2,,215
2012-12-12,50,38,25,21,18,16,75,50,24,30.19,30.14,30.11,10,10,10,24,13,30,0.00,0,,187
2012-12-13,51,41,31,21,20,17,61,46,31,30.15,30.11,30.07,10,10,9,23,11,31,0.00,0,,198
2012-12-14,53,38,22,41,28,19,83,61,38,30.12,30.00,29.82,10,10,5,22,10,28,0.33,3,Rain,165
2012-12-15,50,46,41,48,43,36,96,83,70,29.77,29.58,29.49,10,7,2,23,13,30,0.41,8,Rain,195
2012-12-16,42,36,30,37,32,28,92,87,82,29.81,29.73,29.64,10,7,4,18,8,24,0.00,8,,303
2012-12-17,35,32,29,29,27,26,92,84,75,29.78,29.74,29.68,8,6,5,9,4,12,0.00,8,,339
2012-12-18,49,40,31,35,30,28,100,77,53,29.92,29.69,29.52,10,7,3,28,12,37,0.00,6,,260
2012-12-19,36,34,32,34,31,28,92,87,82,29.99,29.82,29.59,7,4,2,24,10,31,0.46,8,Rain-Thunderstorm,77
2012-12-20,35,26,17,34,24,11,100,86,71,30.04,29.59,29.37,10,4,0,49,30,60,0.31,7,Fog-Rain-Snow-Thunderstorm,334
2012-12-21,27,20,12,13,9,6,80,65,50,30.33,30.25,30.06,10,10,10,25,12,31,0.00,0,,298
2012-12-22,36,23,10,23,16,8,92,71,49,30.29,30.09,29.96,10,10,10,15,6,20,0.00,0,,164
2012-12-23,30,23,15,20,16,11,92,78,63,30.07,30.01,29.97,10,7,4,15,9,17,0.00,2,,28
2012-12-24,22,19,15,20,15,10,92,80,67,30.23,30.04,29.92,10,6,1,23,15,28,T,8,Snow,320
2012-12-25,18,13,7,9,5,1,84,76,67,30.43,30.34,30.26,10,10,10,18,12,23,0.00,2,,352
2012-12-26,22,17,11,15,10,6,84,78,71,30.30,30.23,30.18,10,10,10,18,11,21,0.00,8,,334
2012-12-27,28,19,9,21,15,7,92,80,68,30.24,30.14,30.04,10,10,10,15,7,17,0.00,5,,79
2012-12-28,30,27,24,25,23,21,92,85,78,30.04,29.97,29.92,10,5,2,16,5,21,T,8,Snow,351
2012-12-29,24,19,13,19,13,8,91,79,67,30.29,30.15,29.97,10,6,2,21,11,26,T,5,Snow,286
2012-12-30,41,26,10,25,18,9,92,70,48,30.33,30.21,30.05,10,9,8,21,10,26,0.00,0,,196
2012-12-31,37,26,15,24,14,7,77,65,52,30.25,30.17,30.06,10,10,10,18,13,23,0.00,7,,321